Fairbank, Illinois
Current Conditions -  °F | °C
As of 2:04 AM on Saturday 25 Oct 2014 (Local Time) from KMLI Reporting Station
Moderate Fog Moderate Fog  
Wind Chill: 11°   Ceiling: 100
Heat Index: 11°   Visibility: 0mi
Dew Point:   Wind: 0mph
Humidity: 92%   Direction: NA
Pressure: 29.93"   Gusts: NA
Location:  41.4828°N, 90.1801°W
Report Text: KMLI 250704Z AUTO 00000KT M1/4SM R09/0800V1200FT FG VV001 11/09 A2993 RMK AO2 T01060094
Loading
Personal Weather Stations






























Interactive Weather Map
Tropical Storm Tracking
New forecast layout! Learn more

10-Day Weather Forecast

Advertisements
Track Severe Weather on mobile